createdAt,value
2018-12-21T00:02:26.535Z,57.90
2018-12-21T00:04:55.316Z,56.90
2018-12-21T00:07:24.128Z,57.97
2018-12-21T00:09:52.928Z,55.87
2018-12-21T00:12:22.132Z,54.07
2018-12-21T00:14:51.108Z,51.00
2018-12-21T00:17:19.928Z,49.43
2018-12-21T00:19:48.728Z,50.57
2018-12-21T00:22:17.590Z,49.53
2018-12-21T00:24:46.395Z,53.93
2018-12-21T00:27:15.216Z,63.13
2018-12-21T00:29:44.065Z,55.57
2018-12-21T00:32:18.276Z,57.70
2018-12-21T00:34:52.544Z,56.30
2018-12-21T00:37:26.881Z,58.57
2018-12-21T00:40:01.076Z,54.57
2018-12-21T00:42:38.255Z,53.37
2018-12-21T00:45:11.658Z,55.53
2018-12-21T00:47:40.606Z,55.00
2018-12-21T00:50:09.708Z,54.30
2018-12-21T00:52:38.612Z,53.50
2018-12-21T00:55:07.581Z,52.60
2018-12-21T00:57:36.404Z,56.27
2018-12-21T01:00:06.501Z,56.00
2018-12-21T01:02:36.420Z,53.87
2018-12-21T01:05:05.403Z,65.15
2018-12-21T01:07:35.801Z,59.57
2018-12-21T01:10:05.249Z,58.53
2018-12-21T01:12:34.961Z,57.43
2018-12-21T01:15:03.904Z,62.43
2018-12-21T01:17:33.722Z,56.33
2018-12-21T01:20:02.576Z,56.03
2018-12-21T01:22:31.375Z,53.13
2018-12-21T01:25:00.227Z,54.50
2018-12-21T01:27:30.099Z,52.33
2018-12-21T01:29:59.139Z,50.40
2018-12-21T01:32:28.028Z,51.77
2018-12-21T01:34:56.808Z,54.83
2018-12-21T01:37:25.584Z,52.43
2018-12-21T01:39:54.695Z,50.43
2018-12-21T01:42:23.576Z,52.90
2018-12-21T01:44:52.413Z,54.00
2018-12-21T01:47:21.204Z,51.50
2018-12-21T01:49:50.014Z,52.20
2018-12-21T01:52:18.800Z,49.47
2018-12-21T01:54:47.657Z,50.27
2018-12-21T01:57:16.501Z,51.90
2018-12-21T01:59:45.320Z,51.67
2018-12-21T02:02:14.183Z,51.17
2018-12-21T02:04:43.152Z,50.90
2018-12-21T02:07:12.011Z,52.57
2018-12-21T02:09:40.840Z,52.57
2018-12-21T02:12:09.676Z,51.53
2018-12-21T02:14:38.476Z,51.27
2018-12-21T02:17:07.320Z,53.70
2018-12-21T02:19:36.172Z,54.67
2018-12-21T02:22:04.947Z,51.00
2018-12-21T02:24:33.764Z,50.20
2018-12-21T02:27:02.728Z,50.17
2018-12-21T02:30:02.252Z,51.47
2018-12-21T02:32:31.273Z,48.37
2018-12-21T02:35:00.071Z,49.30
2018-12-21T02:37:28.928Z,47.00
2018-12-21T02:39:57.758Z,45.60
2018-12-21T02:42:26.650Z,43.63
2018-12-21T02:44:55.472Z,44.43
2018-12-21T02:47:24.276Z,42.60
2018-12-21T02:49:53.067Z,40.93
2018-12-21T02:52:21.924Z,41.97
2018-12-21T02:54:51.164Z,41.30
2018-12-21T02:57:19.982Z,38.37
2018-12-21T02:59:48.817Z,38.93
2018-12-21T03:02:17.688Z,43.00
2018-12-21T03:04:46.521Z,36.17
2018-12-21T03:07:15.330Z,36.87
2018-12-21T03:09:44.159Z,35.63
2018-12-21T03:12:13.019Z,34.63
2018-12-21T03:14:42.564Z,36.50
2018-12-21T03:17:11.345Z,35.70
2018-12-21T03:19:40.136Z,34.93
2018-12-21T03:22:14.541Z,34.97
2018-12-21T03:24:39.753Z,34.07
2018-12-21T03:27:08.584Z,32.93
2018-12-21T03:29:37.500Z,33.17
2018-12-21T03:32:06.370Z,35.17
2018-12-21T03:34:35.185Z,35.97
2018-12-21T03:37:04.080Z,34.50
2018-12-21T03:39:32.917Z,35.07
2018-12-21T03:42:01.723Z,33.93
2018-12-21T03:44:30.540Z,34.57
2018-12-21T03:46:59.338Z,26.53
2018-12-21T03:49:28.173Z,25.97
2018-12-21T03:51:58.487Z,28.77
2018-12-21T03:54:27.281Z,27.10
2018-12-21T03:56:56.320Z,24.53
2018-12-21T03:59:25.166Z,26.15
2018-12-21T04:01:53.988Z,21.60
2018-12-21T04:04:23.521Z,22.73
2018-12-21T04:06:52.296Z,28.17
2018-12-21T04:09:21.082Z,27.83
2018-12-21T04:11:49.900Z,26.30
2018-12-21T04:14:18.717Z,25.33
2018-12-21T04:16:47.564Z,27.13
2018-12-21T04:19:16.395Z,25.50
2018-12-21T04:21:45.185Z,25.37
2018-12-21T04:24:13.960Z,26.87
2018-12-21T04:26:42.719Z,27.90
2018-12-21T04:29:12.584Z,29.07
2018-12-21T04:31:41.441Z,25.33
2018-12-21T04:34:10.245Z,25.40
2018-12-21T04:36:39.027Z,27.33
2018-12-21T04:39:07.904Z,26.77
2018-12-21T04:41:36.687Z,26.77
2018-12-21T04:44:05.461Z,27.93
2018-12-21T04:46:34.272Z,26.67
2018-12-21T04:49:03.080Z,28.00
2018-12-21T04:51:31.985Z,28.73
2018-12-21T04:54:01.163Z,27.67
2018-12-21T04:56:29.983Z,26.77
2018-12-21T04:58:58.784Z,27.73
2018-12-21T05:01:27.628Z,25.10
2018-12-21T05:03:56.438Z,24.77
2018-12-21T05:06:25.224Z,24.43
2018-12-21T05:08:54.017Z,24.53
2018-12-21T05:11:22.916Z,24.30
2018-12-21T05:13:51.786Z,21.43
2018-12-21T05:16:20.617Z,21.53
2018-12-21T05:18:49.408Z,22.13
2018-12-21T05:21:18.223Z,21.33
2018-12-21T05:23:47.086Z,19.80
2018-12-21T05:26:15.932Z,22.00
2018-12-21T05:28:44.854Z,16.50
2018-12-21T05:31:13.646Z,16.37
2018-12-21T05:33:43.717Z,16.53
2018-12-21T05:36:12.572Z,16.67
2018-12-21T05:38:41.412Z,15.00
2018-12-21T05:41:10.192Z,18.10
2018-12-21T05:43:39.122Z,16.90
2018-12-21T05:46:07.999Z,15.27
2018-12-21T05:48:36.916Z,17.00
2018-12-21T05:51:05.704Z,17.30
2018-12-21T05:53:34.527Z,23.63
2018-12-21T05:56:03.320Z,21.50
2018-12-21T05:58:32.100Z,18.23
2018-12-21T06:01:00.885Z,17.90
2018-12-21T06:03:30.948Z,19.07
2018-12-21T06:05:59.749Z,19.03
2018-12-21T06:08:28.580Z,20.77
2018-12-21T06:10:57.458Z,21.50
2018-12-21T06:13:26.433Z,23.70
2018-12-21T06:15:55.252Z,21.60
2018-12-21T06:18:24.045Z,23.17
2018-12-21T06:20:52.881Z,22.97
2018-12-21T06:23:21.675Z,22.60
2018-12-21T06:25:50.512Z,19.87
2018-12-21T06:28:19.303Z,18.67
2018-12-21T06:30:48.149Z,19.70
2018-12-21T06:33:16.952Z,20.70
2018-12-21T06:35:45.876Z,20.87
2018-12-21T06:38:14.925Z,20.20
2018-12-21T06:40:43.761Z,22.43
2018-12-21T06:43:13.057Z,21.57
2018-12-21T06:45:41.968Z,23.67
2018-12-21T06:48:10.784Z,23.43
2018-12-21T06:50:39.655Z,25.20
2018-12-21T06:53:08.563Z,23.83
2018-12-21T06:55:37.393Z,25.87
2018-12-21T06:58:06.211Z,27.30
2018-12-21T07:00:35.508Z,23.80
2018-12-21T07:03:04.356Z,25.43
2018-12-21T07:05:33.982Z,26.83
2018-12-21T07:08:02.863Z,28.00
2018-12-21T07:10:31.692Z,27.57
2018-12-21T07:13:00.583Z,30.23
2018-12-21T07:15:30.026Z,27.40
2018-12-21T07:17:58.980Z,24.07
2018-12-21T07:20:27.819Z,22.83
2018-12-21T07:22:56.664Z,21.23
2018-12-21T07:25:25.564Z,22.20
2018-12-21T07:27:54.459Z,19.13
2018-12-21T07:30:23.340Z,19.30
2018-12-21T07:32:52.117Z,18.90
2018-12-21T07:35:20.956Z,20.20
2018-12-21T07:37:49.811Z,19.57
2018-12-21T07:40:18.626Z,18.80
2018-12-21T07:42:47.463Z,20.60
2018-12-21T07:45:16.343Z,21.60
2018-12-21T07:47:45.224Z,22.10
2018-12-21T07:50:14.036Z,22.53
2018-12-21T07:52:42.888Z,21.33
2018-12-21T07:55:11.763Z,20.77
2018-12-21T07:57:40.601Z,20.93
2018-12-21T08:00:11.476Z,21.77
2018-12-21T08:02:40.329Z,23.20
2018-12-21T08:05:09.148Z,21.63
2018-12-21T08:07:38.006Z,21.23
2018-12-21T08:10:10.415Z,20.43
2018-12-21T08:12:39.423Z,24.98
2018-12-21T08:15:08.351Z,21.53
2018-12-21T08:17:37.243Z,20.87
2018-12-21T08:20:07.159Z,20.67
2018-12-21T08:22:36.049Z,21.67
2018-12-21T08:25:05.573Z,22.27
2018-12-21T08:27:34.413Z,22.67
2018-12-21T08:30:03.535Z,23.23
2018-12-21T08:32:32.385Z,23.00
2018-12-21T08:35:01.212Z,23.97
2018-12-21T08:37:30.040Z,23.93
2018-12-21T08:39:58.882Z,23.40
2018-12-21T08:42:28.351Z,21.97
2018-12-21T08:44:57.185Z,21.83
2018-12-21T08:47:26.018Z,21.33
2018-12-21T08:49:54.883Z,19.40
2018-12-21T08:52:26.836Z,19.97
2018-12-21T08:54:56.259Z,18.43
2018-12-21T08:57:25.172Z,19.63
2018-12-21T08:59:54.002Z,18.70
2018-12-21T09:02:22.801Z,20.70
2018-12-21T09:04:51.334Z,20.20
2018-12-21T09:07:20.152Z,19.70
2018-12-21T09:09:49.344Z,20.00
2018-12-21T09:12:18.153Z,22.00
2018-12-21T09:14:47.000Z,19.20
2018-12-21T09:17:15.903Z,18.60
2018-12-21T09:19:45.441Z,17.13
2018-12-21T09:22:14.628Z,20.37
2018-12-21T09:24:44.035Z,18.23
2018-12-21T09:27:12.887Z,19.43
2018-12-21T09:29:41.720Z,18.33
2018-12-21T09:32:10.509Z,17.97
2018-12-21T09:34:39.516Z,18.80
2018-12-21T09:37:08.544Z,18.00
2018-12-21T09:39:37.351Z,17.60
2018-12-21T09:42:06.156Z,17.67
2018-12-21T09:44:36.027Z,17.17
2018-12-21T09:47:05.098Z,17.27
2018-12-21T09:49:35.158Z,17.57
2018-12-21T09:52:04.063Z,17.57
2018-12-21T09:54:32.928Z,18.20
2018-12-21T09:57:02.084Z,17.13
2018-12-21T09:59:31.068Z,15.30
2018-12-21T10:01:59.911Z,15.23
2018-12-21T10:04:28.776Z,15.03
2018-12-21T10:06:57.560Z,13.13
2018-12-21T10:09:26.388Z,16.73
2018-12-21T10:11:55.243Z,18.40
2018-12-21T10:14:24.049Z,17.13
2018-12-21T10:16:53.415Z,16.70
2018-12-21T10:19:23.907Z,16.43
2018-12-21T10:21:52.715Z,17.53
2018-12-21T10:24:21.596Z,16.77
2018-12-21T10:26:50.459Z,16.53
2018-12-21T10:29:19.284Z,16.97
2018-12-21T10:31:48.111Z,17.50
2018-12-21T10:34:16.932Z,15.20
2018-12-21T10:36:45.811Z,10.70
2018-12-21T10:39:14.633Z,6.73
2018-12-21T10:41:43.436Z,6.13
2018-12-21T10:44:12.239Z,9.17
2018-12-21T10:46:41.180Z,10.80
2018-12-21T10:49:10.037Z,11.53
2018-12-21T10:51:39.287Z,14.25
2018-12-21T10:54:08.197Z,11.23
2018-12-21T10:56:37.015Z,10.70
2018-12-21T10:59:05.916Z,9.67
2018-12-21T11:01:34.732Z,8.90
2018-12-21T11:04:05.064Z,7.33
2018-12-21T11:06:34.270Z,8.93
2018-12-21T11:09:04.125Z,10.17
2018-12-21T11:11:32.923Z,10.33
2018-12-21T11:14:01.801Z,10.20
2018-12-21T11:16:30.672Z,10.67
2018-12-21T11:18:59.501Z,10.07
2018-12-21T11:21:28.335Z,10.53
2018-12-21T11:23:57.210Z,11.57
2018-12-21T11:26:26.327Z,9.03
2018-12-21T11:28:55.142Z,5.83
2018-12-21T11:31:24.081Z,4.47
2018-12-21T11:33:52.899Z,4.87
2018-12-21T11:36:21.792Z,5.53
2018-12-21T11:38:51.734Z,6.23
2018-12-21T11:41:20.584Z,6.70
2018-12-21T11:43:49.500Z,5.93
2018-12-21T11:46:18.371Z,5.83
2018-12-21T11:48:47.233Z,4.53
2018-12-21T11:51:17.111Z,5.00
2018-12-21T11:53:46.000Z,6.40
2018-12-21T11:56:14.810Z,5.67
2018-12-21T11:58:43.716Z,5.87
2018-12-21T12:01:12.564Z,7.30
2018-12-21T12:03:41.399Z,8.00
2018-12-21T12:06:10.899Z,7.97
2018-12-21T12:08:39.856Z,8.77
2018-12-21T12:11:08.668Z,10.57
2018-12-21T12:13:37.571Z,11.47
2018-12-21T12:16:06.434Z,9.73
2018-12-21T12:18:35.226Z,7.10
2018-12-21T12:21:04.191Z,6.20
2018-12-21T12:23:33.024Z,5.73
2018-12-21T12:26:04.323Z,5.70
2018-12-21T12:28:33.580Z,5.17
2018-12-21T12:31:02.499Z,43.07
2018-12-21T12:33:31.312Z,8.97
2018-12-21T12:36:00.127Z,7.23
2018-12-21T12:38:28.969Z,7.13
2018-12-21T12:41:06.390Z,5.07
2018-12-21T12:43:28.661Z,4.43
2018-12-21T12:45:57.453Z,3.53
2018-12-21T12:48:26.721Z,5.27
2018-12-21T12:50:55.511Z,4.30
2018-12-21T12:53:24.362Z,6.20
2018-12-21T12:55:53.275Z,3.30
2018-12-21T12:58:22.099Z,3.77
2018-12-21T13:00:50.948Z,3.80
2018-12-21T13:03:19.899Z,4.00
2018-12-21T13:05:48.730Z,4.57
2018-12-21T13:08:17.524Z,4.03
2018-12-21T13:10:46.447Z,3.57
2018-12-21T13:13:15.291Z,3.13
2018-12-21T13:15:44.136Z,4.00
2018-12-21T13:18:12.992Z,3.10
2018-12-21T13:20:41.955Z,4.00
2018-12-21T13:23:11.143Z,6.97
2018-12-21T13:25:40.431Z,3.53
2018-12-21T13:28:10.281Z,3.73
2018-12-21T13:30:39.091Z,3.10
2018-12-21T13:33:08.006Z,4.20
2018-12-21T13:35:36.812Z,3.97
2018-12-21T13:38:05.676Z,5.47
2018-12-21T13:40:34.492Z,5.00
2018-12-21T13:43:03.311Z,5.40
2018-12-21T13:45:32.153Z,5.17
2018-12-21T13:48:03.980Z,6.57
2018-12-21T13:50:32.816Z,5.93
2018-12-21T13:53:01.648Z,11.63
2018-12-21T13:55:30.539Z,5.57
2018-12-21T13:57:59.414Z,6.87
2018-12-21T14:00:28.272Z,9.37
2018-12-21T14:02:57.110Z,6.60
2018-12-21T14:05:25.968Z,7.30
2018-12-21T14:07:54.820Z,6.40
2018-12-21T14:10:23.667Z,7.23
2018-12-21T14:12:53.401Z,8.17
2018-12-21T14:15:22.802Z,6.70
2018-12-21T14:17:51.815Z,6.40
2018-12-21T14:20:23.269Z,7.53
2018-12-21T14:22:52.112Z,6.07
2018-12-21T14:25:28.819Z,5.63
2018-12-21T14:27:53.699Z,5.30
2018-12-21T14:30:22.511Z,5.73
2018-12-21T14:32:52.822Z,8.47
2018-12-21T14:35:26.159Z,7.90
2018-12-21T14:37:56.500Z,7.10
2018-12-21T14:40:25.844Z,6.50
2018-12-21T14:42:54.644Z,6.97
2018-12-21T14:45:23.492Z,7.53
2018-12-21T14:47:52.435Z,7.97
2018-12-21T14:50:21.265Z,8.60
2018-12-21T14:52:50.124Z,7.07
2018-12-21T14:55:18.983Z,8.47
2018-12-21T14:57:47.869Z,12.87
2018-12-21T15:00:16.717Z,12.17
2018-12-21T15:02:50.044Z,8.87
2018-12-21T15:05:19.420Z,8.70
2018-12-21T15:07:48.492Z,9.30
2018-12-21T15:10:17.807Z,9.83
2018-12-21T15:12:46.710Z,10.37
2018-12-21T15:15:15.576Z,10.87
2018-12-21T15:17:44.415Z,13.20
2018-12-21T15:20:13.236Z,15.93
2018-12-21T15:22:42.800Z,12.47
2018-12-21T15:25:11.630Z,13.53
2018-12-21T15:27:40.485Z,11.87
2018-12-21T15:30:21.025Z,12.63
2018-12-21T15:32:51.048Z,11.77
2018-12-21T15:35:19.935Z,13.67
2018-12-21T15:37:48.920Z,13.33
2018-12-21T15:40:18.319Z,14.27
2018-12-21T15:42:47.124Z,14.87
2018-12-21T15:45:15.915Z,16.00
2018-12-21T15:47:44.738Z,15.30
2018-12-21T15:50:13.559Z,13.67
2018-12-21T15:52:43.356Z,13.00
2018-12-21T15:55:12.942Z,12.60
2018-12-21T15:57:41.904Z,13.77
2018-12-21T16:00:13.559Z,11.83
2018-12-21T16:02:46.116Z,12.60
2018-12-21T16:05:16.135Z,11.37
2018-12-21T16:07:44.940Z,12.37
2018-12-21T16:10:13.744Z,12.30
2018-12-21T16:12:42.655Z,11.67
2018-12-21T16:15:11.498Z,13.53
2018-12-21T16:17:40.983Z,10.87
2018-12-21T16:20:12.900Z,10.43
2018-12-21T16:22:42.525Z,11.23
2018-12-21T16:25:11.852Z,9.57
2018-12-21T16:27:41.332Z,9.53
2018-12-21T16:30:12.033Z,11.30
2018-12-21T16:32:40.890Z,12.43
2018-12-21T16:35:09.777Z,11.20
2018-12-21T16:37:38.717Z,11.03
2018-12-21T16:40:10.126Z,12.23
2018-12-21T16:42:38.948Z,10.80
2018-12-21T16:45:09.908Z,10.73
2018-12-21T16:47:38.715Z,11.13
2018-12-21T16:50:13.239Z,12.83
2018-12-21T16:52:42.101Z,12.47
2018-12-21T16:55:12.252Z,10.07
2018-12-21T16:57:41.087Z,10.30
2018-12-21T17:00:13.859Z,12.50
2018-12-21T17:02:42.772Z,10.90
2018-12-21T17:05:11.619Z,10.07
2018-12-21T17:07:40.452Z,11.83
2018-12-21T17:10:18.838Z,12.03
2018-12-21T17:12:48.113Z,13.67
2018-12-21T17:15:16.989Z,9.97
2018-12-21T17:17:45.874Z,12.67
2018-12-21T17:20:14.716Z,11.40
2018-12-21T17:22:44.913Z,9.80
2018-12-21T17:25:15.114Z,9.17
2018-12-21T17:27:44.288Z,9.97
2018-12-21T17:30:13.712Z,10.20
2018-12-21T17:32:42.553Z,9.37
2018-12-21T17:35:11.844Z,11.17
2018-12-21T17:37:40.806Z,8.40
2018-12-21T17:40:10.877Z,7.80
2018-12-21T17:42:39.914Z,8.87
2018-12-21T17:45:10.889Z,9.07
2018-12-21T17:47:39.844Z,10.00
2018-12-21T17:50:09.907Z,15.77
2018-12-21T17:52:38.752Z,13.93
2018-12-21T17:55:09.787Z,14.28
2018-12-21T17:57:38.664Z,13.23
2018-12-21T18:00:15.291Z,10.33
2018-12-21T18:02:46.488Z,8.23
2018-12-21T18:05:16.241Z,9.30
2018-12-21T18:07:45.073Z,10.03
2018-12-21T18:10:14.438Z,10.73
2018-12-21T18:12:43.284Z,9.93
2018-12-21T18:15:12.120Z,9.83
2018-12-21T18:17:44.289Z,10.03
2018-12-21T18:20:13.866Z,9.73
2018-12-21T18:22:43.049Z,9.50
2018-12-21T18:25:14.373Z,13.20
2018-12-21T18:27:45.400Z,10.78
2018-12-21T18:30:19.592Z,12.90
2018-12-21T18:32:48.563Z,10.27
2018-12-21T18:35:19.687Z,9.87
2018-12-21T18:37:52.276Z,11.27
2018-12-21T18:40:21.124Z,10.47
2018-12-21T18:42:50.028Z,11.90
2018-12-21T18:45:20.735Z,16.30
2018-12-21T18:47:49.679Z,13.60
2018-12-21T18:50:18.873Z,14.93
2018-12-21T18:52:48.239Z,13.97
2018-12-21T18:55:17.785Z,15.47
2018-12-21T18:57:46.676Z,14.17
2018-12-21T19:00:16.842Z,14.93
2018-12-21T19:02:45.724Z,14.93
2018-12-21T19:05:15.330Z,13.97
2018-12-21T19:07:44.765Z,14.07
2018-12-21T19:10:13.745Z,14.90
2018-12-21T19:12:42.712Z,12.97
2018-12-21T19:15:12.012Z,14.77
2018-12-21T19:17:41.672Z,15.87
2018-12-21T19:20:12.132Z,15.57
2018-12-21T19:22:41.233Z,15.20
2018-12-21T19:25:11.383Z,15.30
2018-12-21T19:27:40.362Z,15.37
2018-12-21T19:30:11.679Z,17.20
2018-12-21T19:32:43.691Z,18.23
2018-12-21T19:35:13.992Z,16.67
2018-12-21T19:37:43.012Z,22.00
2018-12-21T19:40:12.468Z,24.47
2018-12-21T19:42:41.707Z,25.30
2018-12-21T19:45:13.769Z,23.37
2018-12-21T19:47:42.716Z,24.20
2018-12-21T19:50:12.782Z,24.33
2018-12-21T19:52:41.765Z,24.03
2018-12-21T19:55:51.304Z,26.07
2018-12-21T19:58:22.015Z,26.83
2018-12-21T20:00:51.819Z,25.50
2018-12-21T20:03:20.706Z,27.77
2018-12-21T20:05:49.598Z,25.70
2018-12-21T20:08:18.540Z,26.50
2018-12-21T20:10:48.061Z,23.23
2018-12-21T20:13:16.916Z,22.73
2018-12-21T20:15:45.840Z,23.33
2018-12-21T20:18:14.783Z,22.90
2018-12-21T20:20:43.621Z,21.93
2018-12-21T20:23:12.621Z,22.63
2018-12-21T20:25:41.988Z,22.70
2018-12-21T20:28:10.965Z,25.37
2018-12-21T20:30:39.987Z,26.07
2018-12-21T20:33:09.859Z,29.43
2018-12-21T20:35:38.795Z,27.67
2018-12-21T20:38:07.744Z,26.30
2018-12-21T20:40:36.732Z,26.90
2018-12-21T20:43:08.123Z,27.40
2018-12-21T20:45:37.008Z,23.50
2018-12-21T20:48:07.297Z,24.10
2018-12-21T20:50:36.318Z,23.93
2018-12-21T20:53:09.425Z,19.13
2018-12-21T20:55:41.442Z,21.30
2018-12-21T20:58:46.598Z,20.77
2018-12-21T21:01:17.379Z,19.27
2018-12-21T21:03:48.326Z,19.17
2018-12-21T21:06:19.940Z,20.93
2018-12-21T21:08:50.534Z,23.83
2018-12-21T21:11:24.970Z,23.03
2018-12-21T21:13:52.312Z,21.83
2018-12-21T21:16:22.032Z,22.17
2018-12-21T21:18:51.388Z,18.20
2018-12-21T21:21:20.800Z,17.97
2018-12-21T21:23:51.323Z,17.35
2018-12-21T21:26:21.551Z,16.90
2018-12-21T21:28:52.469Z,19.33
2018-12-21T21:31:22.249Z,16.97
2018-12-21T21:33:51.175Z,15.87
2018-12-21T21:36:20.104Z,16.43
2018-12-21T21:38:49.295Z,16.00
2018-12-21T21:41:18.173Z,13.50
2018-12-21T21:43:46.983Z,14.53
2018-12-21T21:46:15.865Z,11.20
2018-12-21T21:48:44.908Z,11.30
2018-12-21T21:51:13.748Z,11.87
2018-12-21T21:53:42.587Z,11.43
2018-12-21T21:56:11.415Z,9.87
2018-12-21T21:58:40.308Z,9.20
2018-12-21T22:01:09.167Z,8.80
2018-12-21T22:03:38.240Z,7.90
2018-12-21T22:06:07.205Z,7.87
2018-12-21T22:08:36.164Z,7.00
2018-12-21T22:11:05.132Z,7.70
2018-12-21T22:13:34.017Z,8.60
2018-12-21T22:16:03.285Z,10.17
2018-12-21T22:18:32.202Z,9.73
2018-12-21T22:21:01.144Z,7.60
2018-12-21T22:23:29.940Z,6.27
2018-12-21T22:25:58.760Z,5.53
2018-12-21T22:28:27.652Z,7.07
2018-12-21T22:30:56.468Z,6.10
2018-12-21T22:33:25.352Z,6.87
2018-12-21T22:35:54.191Z,5.83
2018-12-21T22:38:23.024Z,5.87
2018-12-21T22:40:51.867Z,6.17
2018-12-21T22:43:20.696Z,6.57
2018-12-21T22:45:49.628Z,7.00
2018-12-21T22:48:18.459Z,7.67
2018-12-21T22:50:47.265Z,7.23
2018-12-21T22:53:16.084Z,8.10
2018-12-21T22:55:44.880Z,7.50
2018-12-21T22:58:13.695Z,7.00
2018-12-21T23:00:43.265Z,7.93
2018-12-21T23:03:12.099Z,7.67
2018-12-21T23:05:40.941Z,8.33
2018-12-21T23:08:09.744Z,9.10
2018-12-21T23:10:38.891Z,8.50
2018-12-21T23:13:07.707Z,7.63
2018-12-21T23:15:36.548Z,7.13
2018-12-21T23:18:05.331Z,6.77
2018-12-21T23:20:34.132Z,8.47
2018-12-21T23:23:02.950Z,7.40
2018-12-21T23:25:31.781Z,7.03
2018-12-21T23:28:04.972Z,6.57
2018-12-21T23:30:31.704Z,8.00
2018-12-21T23:33:00.528Z,7.47
2018-12-21T23:35:29.640Z,7.93
2018-12-21T23:37:58.468Z,8.17
2018-12-21T23:40:27.294Z,8.10
2018-12-21T23:42:56.170Z,9.33
2018-12-21T23:45:25.092Z,8.27
2018-12-21T23:47:53.923Z,9.00
2018-12-21T23:50:22.716Z,9.40
2018-12-21T23:52:51.541Z,9.17
2018-12-21T23:55:20.625Z,9.20
2018-12-21T23:57:49.523Z,9.33
